sensor_id;sensor_type;location;lat;lon;timestamp;P1;durP1;ratioP1;P2;durP2;ratioP2
82186;SDS011;71776;52.042;8.160;2023-09-30T00:00:33;7.82;;;3.47;;
82186;SDS011;71776;52.042;8.160;2023-09-30T00:02:58;8.10;;;3.28;;
82186;SDS011;71776;52.042;8.160;2023-09-30T00:05:25;6.05;;;3.35;;
82186;SDS011;71776;52.042;8.160;2023-09-30T00:07:50;7.97;;;3.72;;
82186;SDS011;71776;52.042;8.160;2023-09-30T00:10:16;5.70;;;2.80;;
82186;SDS011;71776;52.042;8.160;2023-09-30T00:12:41;5.95;;;3.42;;
82186;SDS011;71776;52.042;8.160;2023-09-30T00:15:06;7.45;;;2.90;;
82186;SDS011;71776;52.042;8.160;2023-09-30T00:17:32;6.22;;;3.30;;
82186;SDS011;71776;52.042;8.160;2023-09-30T00:19:57;7.68;;;3.80;;
82186;SDS011;71776;52.042;8.160;2023-09-30T00:22:24;6.13;;;3.50;;
82186;SDS011;71776;52.042;8.160;2023-09-30T00:24:49;9.90;;;3.65;;
82186;SDS011;71776;52.042;8.160;2023-09-30T00:27:15;6.85;;;4.03;;
82186;SDS011;71776;52.042;8.160;2023-09-30T00:29:40;4.60;;;2.67;;
82186;SDS011;71776;52.042;8.160;2023-09-30T00:32:05;7.03;;;3.40;;
82186;SDS011;71776;52.042;8.160;2023-09-30T00:34:32;9.98;;;3.00;;
82186;SDS011;71776;52.042;8.160;2023-09-30T00:36:58;6.63;;;2.97;;
82186;SDS011;71776;52.042;8.160;2023-09-30T00:39:25;11.05;;;3.42;;
82186;SDS011;71776;52.042;8.160;2023-09-30T00:41:50;11.40;;;3.40;;
82186;SDS011;71776;52.042;8.160;2023-09-30T00:44:15;7.63;;;3.95;;
82186;SDS011;71776;52.042;8.160;2023-09-30T00:46:41;5.78;;;3.28;;
82186;SDS011;71776;52.042;8.160;2023-09-30T00:49:06;6.50;;;3.28;;
82186;SDS011;71776;52.042;8.160;2023-09-30T00:51:32;4.93;;;2.83;;
82186;SDS011;71776;52.042;8.160;2023-09-30T00:53:59;5.72;;;2.78;;
82186;SDS011;71776;52.042;8.160;2023-09-30T00:56:26;5.60;;;2.92;;
82186;SDS011;71776;52.042;8.160;2023-09-30T00:58:51;6.82;;;3.25;;
82186;SDS011;71776;52.042;8.160;2023-09-30T01:01:17;8.50;;;3.00;;
82186;SDS011;71776;52.042;8.160;2023-09-30T01:03:43;4.93;;;3.00;;
82186;SDS011;71776;52.042;8.160;2023-09-30T01:06:08;6.78;;;3.33;;
82186;SDS011;71776;52.042;8.160;2023-09-30T01:08:33;4.32;;;3.17;;
82186;SDS011;71776;52.042;8.160;2023-09-30T01:10:59;5.25;;;2.97;;
82186;SDS011;71776;52.042;8.160;2023-09-30T01:13:27;7.28;;;3.10;;
82186;SDS011;71776;52.042;8.160;2023-09-30T01:15:56;5.35;;;3.03;;
82186;SDS011;71776;52.042;8.160;2023-09-30T01:18:21;4.80;;;2.78;;
82186;SDS011;71776;52.042;8.160;2023-09-30T01:20:47;4.78;;;2.90;;
82186;SDS011;71776;52.042;8.160;2023-09-30T01:23:13;5.80;;;3.47;;
82186;SDS011;71776;52.042;8.160;2023-09-30T01:25:39;4.50;;;2.97;;
82186;SDS011;71776;52.042;8.160;2023-09-30T01:28:07;4.72;;;3.15;;
82186;SDS011;71776;52.042;8.160;2023-09-30T01:30:32;5.85;;;3.13;;
82186;SDS011;71776;52.042;8.160;2023-09-30T01:32:58;8.57;;;3.22;;
82186;SDS011;71776;52.042;8.160;2023-09-30T01:35:23;7.13;;;3.30;;
82186;SDS011;71776;52.042;8.160;2023-09-30T01:37:49;3.35;;;2.83;;
82186;SDS011;71776;52.042;8.160;2023-09-30T01:40:15;5.80;;;3.25;;
82186;SDS011;71776;52.042;8.160;2023-09-30T01:42:41;7.35;;;3.95;;
82186;SDS011;71776;52.042;8.160;2023-09-30T01:45:06;5.60;;;3.10;;
82186;SDS011;71776;52.042;8.160;2023-09-30T01:47:32;5.95;;;2.90;;
82186;SDS011;71776;52.042;8.160;2023-09-30T01:49:57;4.43;;;2.75;;
82186;SDS011;71776;52.042;8.160;2023-09-30T01:52:22;4.90;;;3.30;;
82186;SDS011;71776;52.042;8.160;2023-09-30T01:54:48;7.10;;;3.58;;
82186;SDS011;71776;52.042;8.160;2023-09-30T01:57:14;7.38;;;3.35;;
82186;SDS011;71776;52.042;8.160;2023-09-30T01:59:40;5.10;;;3.40;;
82186;SDS011;71776;52.042;8.160;2023-09-30T02:02:05;6.43;;;3.28;;
82186;SDS011;71776;52.042;8.160;2023-09-30T02:04:30;5.93;;;3.60;;
82186;SDS011;71776;52.042;8.160;2023-09-30T02:06:56;7.63;;;4.75;;
82186;SDS011;71776;52.042;8.160;2023-09-30T02:09:21;5.82;;;3.35;;
82186;SDS011;71776;52.042;8.160;2023-09-30T02:11:46;9.25;;;4.18;;
82186;SDS011;71776;52.042;8.160;2023-09-30T02:14:13;5.68;;;3.85;;
82186;SDS011;71776;52.042;8.160;2023-09-30T02:16:38;8.98;;;3.80;;
82186;SDS011;71776;52.042;8.160;2023-09-30T02:19:04;9.25;;;3.90;;
82186;SDS011;71776;52.042;8.160;2023-09-30T02:21:29;5.85;;;3.38;;
82186;SDS011;71776;52.042;8.160;2023-09-30T02:23:54;6.88;;;3.15;;
82186;SDS011;71776;52.042;8.160;2023-09-30T02:26:20;8.00;;;3.55;;
82186;SDS011;71776;52.042;8.160;2023-09-30T02:28:45;7.03;;;3.50;;
82186;SDS011;71776;52.042;8.160;2023-09-30T02:31:12;5.68;;;3.47;;
82186;SDS011;71776;52.042;8.160;2023-09-30T02:33:37;7.35;;;4.40;;
82186;SDS011;71776;52.042;8.160;2023-09-30T02:36:03;6.75;;;3.60;;
82186;SDS011;71776;52.042;8.160;2023-09-30T02:38:28;6.18;;;3.55;;
82186;SDS011;71776;52.042;8.160;2023-09-30T02:40:53;5.47;;;3.60;;
82186;SDS011;71776;52.042;8.160;2023-09-30T02:43:19;9.23;;;3.83;;
82186;SDS011;71776;52.042;8.160;2023-09-30T02:45:44;5.07;;;3.67;;
82186;SDS011;71776;52.042;8.160;2023-09-30T02:48:11;8.02;;;4.32;;
82186;SDS011;71776;52.042;8.160;2023-09-30T02:50:37;6.57;;;3.70;;
82186;SDS011;71776;52.042;8.160;2023-09-30T02:53:02;11.77;;;3.60;;
82186;SDS011;71776;52.042;8.160;2023-09-30T02:55:27;7.15;;;3.92;;
82186;SDS011;71776;52.042;8.160;2023-09-30T02:57:53;4.70;;;3.28;;
82186;SDS011;71776;52.042;8.160;2023-09-30T03:00:18;5.30;;;3.47;;
82186;SDS011;71776;52.042;8.160;2023-09-30T03:02:43;7.18;;;3.78;;
82186;SDS011;71776;52.042;8.160;2023-09-30T03:05:10;5.63;;;3.50;;
82186;SDS011;71776;52.042;8.160;2023-09-30T03:07:36;7.53;;;3.65;;
82186;SDS011;71776;52.042;8.160;2023-09-30T03:10:01;5.95;;;3.70;;
82186;SDS011;71776;52.042;8.160;2023-09-30T03:12:26;6.78;;;3.78;;
82186;SDS011;71776;52.042;8.160;2023-09-30T03:14:52;6.80;;;3.70;;
82186;SDS011;71776;52.042;8.160;2023-09-30T03:17:17;10.50;;;4.32;;
82186;SDS011;71776;52.042;8.160;2023-09-30T03:19:43;4.90;;;3.83;;
82186;SDS011;71776;52.042;8.160;2023-09-30T03:22:10;6.07;;;3.70;;
82186;SDS011;71776;52.042;8.160;2023-09-30T03:24:35;3.60;;;3.28;;
82186;SDS011;71776;52.042;8.160;2023-09-30T03:27:00;6.45;;;3.95;;
82186;SDS011;71776;52.042;8.160;2023-09-30T03:29:26;7.07;;;3.50;;
82186;SDS011;71776;52.042;8.160;2023-09-30T03:31:51;5.78;;;3.72;;
82186;SDS011;71776;52.042;8.160;2023-09-30T03:34:16;6.18;;;3.72;;
82186;SDS011;71776;52.042;8.160;2023-09-30T03:36:42;5.10;;;3.22;;
82186;SDS011;71776;52.042;8.160;2023-09-30T03:39:09;6.68;;;3.50;;
82186;SDS011;71776;52.042;8.160;2023-09-30T03:41:34;5.03;;;3.85;;
82186;SDS011;71776;52.042;8.160;2023-09-30T03:43:59;8.00;;;4.30;;
82186;SDS011;71776;52.042;8.160;2023-09-30T03:46:25;9.27;;;4.43;;
82186;SDS011;71776;52.042;8.160;2023-09-30T03:48:50;8.52;;;4.07;;
82186;SDS011;71776;52.042;8.160;2023-09-30T03:51:15;7.50;;;3.75;;
82186;SDS011;71776;52.042;8.160;2023-09-30T03:53:41;7.53;;;4.05;;
82186;SDS011;71776;52.042;8.160;2023-09-30T03:56:07;9.65;;;4.68;;
82186;SDS011;71776;52.042;8.160;2023-09-30T03:58:33;10.35;;;6.03;;
82186;SDS011;71776;52.042;8.160;2023-09-30T04:00:58;5.43;;;4.00;;
82186;SDS011;71776;52.042;8.160;2023-09-30T04:03:24;8.38;;;4.38;;
82186;SDS011;71776;52.042;8.160;2023-09-30T04:05:49;5.68;;;3.80;;
82186;SDS011;71776;52.042;8.160;2023-09-30T04:08:15;7.50;;;4.07;;
82186;SDS011;71776;52.042;8.160;2023-09-30T04:10:41;4.63;;;3.83;;
82186;SDS011;71776;52.042;8.160;2023-09-30T04:13:07;7.20;;;3.88;;
82186;SDS011;71776;52.042;8.160;2023-09-30T04:15:33;6.75;;;3.65;;
82186;SDS011;71776;52.042;8.160;2023-09-30T04:17:59;4.53;;;4.00;;
82186;SDS011;71776;52.042;8.160;2023-09-30T04:20:24;6.13;;;3.85;;
82186;SDS011;71776;52.042;8.160;2023-09-30T04:22:49;7.88;;;4.22;;
82186;SDS011;71776;52.042;8.160;2023-09-30T04:25:15;10.60;;;3.88;;
82186;SDS011;71776;52.042;8.160;2023-09-30T04:27:40;8.32;;;3.97;;
82186;SDS011;71776;52.042;8.160;2023-09-30T04:30:07;7.63;;;3.78;;
82186;SDS011;71776;52.042;8.160;2023-09-30T04:32:32;5.57;;;3.63;;
82186;SDS011;71776;52.042;8.160;2023-09-30T04:34:58;6.75;;;3.90;;
82186;SDS011;71776;52.042;8.160;2023-09-30T04:37:23;3.63;;;3.33;;
82186;SDS011;71776;52.042;8.160;2023-09-30T04:39:48;4.60;;;3.97;;
82186;SDS011;71776;52.042;8.160;2023-09-30T04:42:14;5.85;;;3.80;;
82186;SDS011;71776;52.042;8.160;2023-09-30T04:44:39;7.50;;;4.15;;
82186;SDS011;71776;52.042;8.160;2023-09-30T04:47:06;7.43;;;4.60;;
82186;SDS011;71776;52.042;8.160;2023-09-30T04:49:31;7.85;;;4.53;;
82186;SDS011;71776;52.042;8.160;2023-09-30T04:51:57;5.85;;;3.60;;
82186;SDS011;71776;52.042;8.160;2023-09-30T04:54:22;6.60;;;3.58;;
82186;SDS011;71776;52.042;8.160;2023-09-30T04:56:47;10.80;;;4.25;;
82186;SDS011;71776;52.042;8.160;2023-09-30T04:59:12;13.15;;;5.03;;
82186;SDS011;71776;52.042;8.160;2023-09-30T05:01:38;6.78;;;3.90;;
82186;SDS011;71776;52.042;8.160;2023-09-30T05:04:05;6.35;;;4.20;;
82186;SDS011;71776;52.042;8.160;2023-09-30T05:06:30;4.78;;;3.80;;
82186;SDS011;71776;52.042;8.160;2023-09-30T05:08:55;8.75;;;4.43;;
82186;SDS011;71776;52.042;8.160;2023-09-30T05:11:21;7.80;;;4.10;;
82186;SDS011;71776;52.042;8.160;2023-09-30T05:13:46;7.90;;;4.07;;
82186;SDS011;71776;52.042;8.160;2023-09-30T05:16:11;4.68;;;3.58;;
82186;SDS011;71776;52.042;8.160;2023-09-30T05:18:37;7.97;;;3.78;;
82186;SDS011;71776;52.042;8.160;2023-09-30T05:21:03;6.03;;;4.22;;
82186;SDS011;71776;52.042;8.160;2023-09-30T05:23:29;6.90;;;4.35;;
82186;SDS011;71776;52.042;8.160;2023-09-30T05:25:54;4.47;;;3.85;;
82186;SDS011;71776;52.042;8.160;2023-09-30T05:28:19;8.82;;;3.83;;
82186;SDS011;71776;52.042;8.160;2023-09-30T05:30:45;8.07;;;4.28;;
82186;SDS011;71776;52.042;8.160;2023-09-30T05:33:10;10.82;;;4.70;;
82186;SDS011;71776;52.042;8.160;2023-09-30T05:35:35;7.30;;;4.20;;
82186;SDS011;71776;52.042;8.160;2023-09-30T05:38:03;7.78;;;4.47;;
82186;SDS011;71776;52.042;8.160;2023-09-30T05:40:28;9.02;;;4.15;;
82186;SDS011;71776;52.042;8.160;2023-09-30T05:42:53;5.47;;;3.28;;
82186;SDS011;71776;52.042;8.160;2023-09-30T05:45:19;8.25;;;4.07;;
82186;SDS011;71776;52.042;8.160;2023-09-30T05:47:44;8.25;;;4.20;;
82186;SDS011;71776;52.042;8.160;2023-09-30T05:50:10;9.00;;;4.28;;
82186;SDS011;71776;52.042;8.160;2023-09-30T05:52:35;9.77;;;4.53;;
82186;SDS011;71776;52.042;8.160;2023-09-30T05:55:02;12.95;;;4.15;;
82186;SDS011;71776;52.042;8.160;2023-09-30T05:57:27;8.75;;;4.60;;
82186;SDS011;71776;52.042;8.160;2023-09-30T05:59:53;9.77;;;4.57;;
82186;SDS011;71776;52.042;8.160;2023-09-30T06:02:18;12.90;;;4.88;;
82186;SDS011;71776;52.042;8.160;2023-09-30T06:04:43;5.47;;;3.80;;
82186;SDS011;71776;52.042;8.160;2023-09-30T06:07:09;7.15;;;4.07;;
82186;SDS011;71776;52.042;8.160;2023-09-30T06:09:34;8.40;;;4.20;;
82186;SDS011;71776;52.042;8.160;2023-09-30T06:12:01;6.45;;;4.47;;
82186;SDS011;71776;52.042;8.160;2023-09-30T06:14:26;7.50;;;4.13;;
82186;SDS011;71776;52.042;8.160;2023-09-30T06:16:51;12.85;;;4.72;;
82186;SDS011;71776;52.042;8.160;2023-09-30T06:19:17;8.55;;;4.75;;
82186;SDS011;71776;52.042;8.160;2023-09-30T06:21:42;7.82;;;4.30;;
82186;SDS011;71776;52.042;8.160;2023-09-30T06:24:07;15.32;;;5.70;;
82186;SDS011;71776;52.042;8.160;2023-09-30T06:26:33;11.15;;;5.15;;
82186;SDS011;71776;52.042;8.160;2023-09-30T06:28:59;10.20;;;5.55;;
82186;SDS011;71776;52.042;8.160;2023-09-30T06:31:25;8.13;;;4.60;;
82186;SDS011;71776;52.042;8.160;2023-09-30T06:33:50;6.53;;;4.80;;
82186;SDS011;71776;52.042;8.160;2023-09-30T06:36:15;10.80;;;4.90;;
82186;SDS011;71776;52.042;8.160;2023-09-30T06:38:41;7.80;;;5.00;;
82186;SDS011;71776;52.042;8.160;2023-09-30T06:41:06;8.80;;;4.70;;
82186;SDS011;71776;52.042;8.160;2023-09-30T06:43:32;8.25;;;4.25;;
82186;SDS011;71776;52.042;8.160;2023-09-30T06:45:59;7.28;;;4.63;;
82186;SDS011;71776;52.042;8.160;2023-09-30T06:48:24;6.30;;;4.30;;
82186;SDS011;71776;52.042;8.160;2023-09-30T06:50:49;7.63;;;4.13;;
82186;SDS011;71776;52.042;8.160;2023-09-30T06:53:15;7.65;;;4.85;;
82186;SDS011;71776;52.042;8.160;2023-09-30T06:55:40;16.33;;;5.57;;
82186;SDS011;71776;52.042;8.160;2023-09-30T06:58:06;7.60;;;5.53;;
82186;SDS011;71776;52.042;8.160;2023-09-30T07:00:31;9.88;;;5.25;;
82186;SDS011;71776;52.042;8.160;2023-09-30T07:02:58;7.78;;;4.68;;
82186;SDS011;71776;52.042;8.160;2023-09-30T07:05:24;10.90;;;5.13;;
82186;SDS011;71776;52.042;8.160;2023-09-30T07:07:49;7.82;;;4.78;;
82186;SDS011;71776;52.042;8.160;2023-09-30T07:10:14;8.50;;;5.03;;
82186;SDS011;71776;52.042;8.160;2023-09-30T07:12:40;11.70;;;5.75;;
82186;SDS011;71776;52.042;8.160;2023-09-30T07:15:05;14.48;;;5.50;;
82186;SDS011;71776;52.042;8.160;2023-09-30T07:17:31;11.90;;;5.32;;
82186;SDS011;71776;52.042;8.160;2023-09-30T07:19:58;13.50;;;5.72;;
82186;SDS011;71776;52.042;8.160;2023-09-30T07:22:24;11.38;;;5.43;;
82186;SDS011;71776;52.042;8.160;2023-09-30T07:24:49;10.35;;;5.43;;
82186;SDS011;71776;52.042;8.160;2023-09-30T07:27:15;11.75;;;5.93;;
82186;SDS011;71776;52.042;8.160;2023-09-30T07:29:41;9.38;;;5.78;;
82186;SDS011;71776;52.042;8.160;2023-09-30T07:32:06;10.15;;;6.00;;
82186;SDS011;71776;52.042;8.160;2023-09-30T07:34:32;13.75;;;5.35;;
82186;SDS011;71776;52.042;8.160;2023-09-30T07:36:59;10.27;;;5.63;;
82186;SDS011;71776;52.042;8.160;2023-09-30T07:39:24;15.35;;;6.30;;
82186;SDS011;71776;52.042;8.160;2023-09-30T07:41:49;8.52;;;5.72;;
82186;SDS011;71776;52.042;8.160;2023-09-30T07:44:15;12.80;;;5.78;;
82186;SDS011;71776;52.042;8.160;2023-09-30T07:46:40;14.98;;;6.57;;
82186;SDS011;71776;52.042;8.160;2023-09-30T07:49:05;11.43;;;6.43;;
82186;SDS011;71776;52.042;8.160;2023-09-30T07:51:32;11.48;;;6.15;;
82186;SDS011;71776;52.042;8.160;2023-09-30T07:53:59;12.15;;;6.47;;
82186;SDS011;71776;52.042;8.160;2023-09-30T07:56:24;13.35;;;6.20;;
82186;SDS011;71776;52.042;8.160;2023-09-30T07:58:49;13.07;;;6.57;;
82186;SDS011;71776;52.042;8.160;2023-09-30T08:01:15;12.52;;;6.47;;
82186;SDS011;71776;52.042;8.160;2023-09-30T08:03:40;13.40;;;6.65;;
82186;SDS011;71776;52.042;8.160;2023-09-30T08:06:06;13.40;;;6.47;;
82186;SDS011;71776;52.042;8.160;2023-09-30T08:08:32;12.70;;;6.75;;
82186;SDS011;71776;52.042;8.160;2023-09-30T08:10:59;12.13;;;6.88;;
82186;SDS011;71776;52.042;8.160;2023-09-30T08:13:24;14.00;;;7.07;;
82186;SDS011;71776;52.042;8.160;2023-09-30T08:15:49;15.80;;;6.13;;
82186;SDS011;71776;52.042;8.160;2023-09-30T08:18:15;12.30;;;6.40;;
82186;SDS011;71776;52.042;8.160;2023-09-30T08:20:40;11.70;;;7.50;;
82186;SDS011;71776;52.042;8.160;2023-09-30T08:23:05;12.85;;;7.25;;
82186;SDS011;71776;52.042;8.160;2023-09-30T08:25:30;14.45;;;6.35;;
82186;SDS011;71776;52.042;8.160;2023-09-30T08:27:57;10.52;;;6.95;;
82186;SDS011;71776;52.042;8.160;2023-09-30T08:30:23;12.98;;;6.68;;
82186;SDS011;71776;52.042;8.160;2023-09-30T08:32:49;13.88;;;6.15;;
82186;SDS011;71776;52.042;8.160;2023-09-30T08:35:14;14.55;;;6.53;;
82186;SDS011;71776;52.042;8.160;2023-09-30T08:37:40;14.25;;;7.43;;
82186;SDS011;71776;52.042;8.160;2023-09-30T08:40:05;14.50;;;7.38;;
82186;SDS011;71776;52.042;8.160;2023-09-30T08:42:31;12.63;;;6.20;;
82186;SDS011;71776;52.042;8.160;2023-09-30T08:44:58;13.38;;;6.85;;
82186;SDS011;71776;52.042;8.160;2023-09-30T08:47:24;13.45;;;7.60;;
82186;SDS011;71776;52.042;8.160;2023-09-30T08:49:51;14.73;;;7.50;;
82186;SDS011;71776;52.042;8.160;2023-09-30T08:52:16;15.57;;;7.45;;
82186;SDS011;71776;52.042;8.160;2023-09-30T08:54:41;14.43;;;7.80;;
82186;SDS011;71776;52.042;8.160;2023-09-30T08:57:08;12.50;;;7.70;;
82186;SDS011;71776;52.042;8.160;2023-09-30T08:59:34;10.52;;;6.40;;
82186;SDS011;71776;52.042;8.160;2023-09-30T09:02:01;11.15;;;6.70;;
82186;SDS011;71776;52.042;8.160;2023-09-30T09:04:27;11.32;;;6.38;;
82186;SDS011;71776;52.042;8.160;2023-09-30T09:06:53;11.88;;;6.43;;
82186;SDS011;71776;52.042;8.160;2023-09-30T09:09:18;13.00;;;6.30;;
82186;SDS011;71776;52.042;8.160;2023-09-30T09:11:43;12.05;;;5.97;;
82186;SDS011;71776;52.042;8.160;2023-09-30T09:14:09;13.52;;;6.40;;
82186;SDS011;71776;52.042;8.160;2023-09-30T09:16:35;12.52;;;7.13;;
82186;SDS011;71776;52.042;8.160;2023-09-30T09:19:03;11.05;;;5.85;;
82186;SDS011;71776;52.042;8.160;2023-09-30T09:21:37;11.57;;;6.13;;
82186;SDS011;71776;52.042;8.160;2023-09-30T09:24:03;8.63;;;5.95;;
82186;SDS011;71776;52.042;8.160;2023-09-30T09:26:28;12.48;;;6.07;;
82186;SDS011;71776;52.042;8.160;2023-09-30T09:28:58;14.65;;;6.50;;
82186;SDS011;71776;52.042;8.160;2023-09-30T09:31:24;10.93;;;5.97;;
82186;SDS011;71776;52.042;8.160;2023-09-30T09:33:49;14.52;;;6.20;;
82186;SDS011;71776;52.042;8.160;2023-09-30T09:36:16;12.48;;;5.60;;
82186;SDS011;71776;52.042;8.160;2023-09-30T09:38:45;12.20;;;6.15;;
82186;SDS011;71776;52.042;8.160;2023-09-30T09:41:11;11.90;;;6.25;;
82186;SDS011;71776;52.042;8.160;2023-09-30T09:43:36;9.93;;;5.93;;
82186;SDS011;71776;52.042;8.160;2023-09-30T09:46:01;8.25;;;5.20;;
82186;SDS011;71776;52.042;8.160;2023-09-30T09:48:27;11.50;;;5.65;;
82186;SDS011;71776;52.042;8.160;2023-09-30T09:50:53;10.38;;;5.88;;
82186;SDS011;71776;52.042;8.160;2023-09-30T09:53:19;9.00;;;5.47;;
82186;SDS011;71776;52.042;8.160;2023-09-30T09:55:45;9.88;;;5.32;;
82186;SDS011;71776;52.042;8.160;2023-09-30T09:58:11;11.82;;;5.53;;
82186;SDS011;71776;52.042;8.160;2023-09-30T10:00:38;9.25;;;4.82;;
82186;SDS011;71776;52.042;8.160;2023-09-30T10:03:03;7.78;;;4.90;;
82186;SDS011;71776;52.042;8.160;2023-09-30T10:05:29;9.65;;;5.65;;
82186;SDS011;71776;52.042;8.160;2023-09-30T10:07:54;11.75;;;4.95;;
82186;SDS011;71776;52.042;8.160;2023-09-30T10:10:23;10.80;;;4.88;;
82186;SDS011;71776;52.042;8.160;2023-09-30T10:12:48;9.35;;;5.35;;
82186;SDS011;71776;52.042;8.160;2023-09-30T10:17:57;10.52;;;5.50;;
82186;SDS011;71776;52.042;8.160;2023-09-30T10:20:26;11.30;;;5.25;;
82186;SDS011;71776;52.042;8.160;2023-09-30T10:23:03;6.07;;;4.40;;
82186;SDS011;71776;52.042;8.160;2023-09-30T10:25:45;11.35;;;4.90;;
82186;SDS011;71776;52.042;8.160;2023-09-30T10:31:13;9.15;;;4.93;;
82186;SDS011;71776;52.042;8.160;2023-09-30T10:36:26;13.00;;;8.73;;
82186;SDS011;71776;52.042;8.160;2023-09-30T10:38:51;27.95;;;17.02;;
82186;SDS011;71776;52.042;8.160;2023-09-30T10:46:50;9.48;;;4.78;;
82186;SDS011;71776;52.042;8.160;2023-09-30T10:49:16;8.38;;;4.60;;
82186;SDS011;71776;52.042;8.160;2023-09-30T10:51:41;8.57;;;4.05;;
82186;SDS011;71776;52.042;8.160;2023-09-30T10:54:07;11.45;;;4.30;;
82186;SDS011;71776;52.042;8.160;2023-09-30T10:56:33;6.80;;;4.32;;
82186;SDS011;71776;52.042;8.160;2023-09-30T10:58:58;8.15;;;3.60;;
82186;SDS011;71776;52.042;8.160;2023-09-30T11:01:24;7.20;;;4.32;;
82186;SDS011;71776;52.042;8.160;2023-09-30T11:03:55;9.68;;;4.65;;
82186;SDS011;71776;52.042;8.160;2023-09-30T11:06:23;14.05;;;4.82;;
82186;SDS011;71776;52.042;8.160;2023-09-30T11:08:50;7.35;;;4.47;;
82186;SDS011;71776;52.042;8.160;2023-09-30T11:11:16;8.90;;;4.07;;
82186;SDS011;71776;52.042;8.160;2023-09-30T11:13:41;12.52;;;5.47;;
82186;SDS011;71776;52.042;8.160;2023-09-30T11:16:06;9.93;;;5.65;;
82186;SDS011;71776;52.042;8.160;2023-09-30T11:18:32;9.35;;;4.70;;
82186;SDS011;71776;52.042;8.160;2023-09-30T11:21:06;9.00;;;6.00;;
82186;SDS011;71776;52.042;8.160;2023-09-30T11:23:31;9.20;;;6.13;;
82186;SDS011;71776;52.042;8.160;2023-09-30T11:25:57;7.35;;;4.15;;
82186;SDS011;71776;52.042;8.160;2023-09-30T11:28:22;5.70;;;3.83;;
82186;SDS011;71776;52.042;8.160;2023-09-30T11:30:54;4.65;;;3.40;;
82186;SDS011;71776;52.042;8.160;2023-09-30T11:33:19;7.07;;;4.22;;
82186;SDS011;71776;52.042;8.160;2023-09-30T11:35:55;5.68;;;3.30;;
82186;SDS011;71776;52.042;8.160;2023-09-30T11:38:21;8.50;;;5.22;;
82186;SDS011;71776;52.042;8.160;2023-09-30T11:40:57;7.78;;;3.90;;
82186;SDS011;71776;52.042;8.160;2023-09-30T11:43:22;4.20;;;3.05;;
82186;SDS011;71776;52.042;8.160;2023-09-30T11:45:48;7.30;;;3.60;;
82186;SDS011;71776;52.042;8.160;2023-09-30T11:48:17;6.50;;;4.03;;
82186;SDS011;71776;52.042;8.160;2023-09-30T11:50:46;8.98;;;4.57;;
82186;SDS011;71776;52.042;8.160;2023-09-30T11:53:14;7.30;;;3.70;;
82186;SDS011;71776;52.042;8.160;2023-09-30T11:55:41;7.38;;;3.70;;
82186;SDS011;71776;52.042;8.160;2023-09-30T11:58:06;6.38;;;3.42;;
82186;SDS011;71776;52.042;8.160;2023-09-30T12:00:32;6.05;;;3.30;;
82186;SDS011;71776;52.042;8.160;2023-09-30T12:02:58;5.30;;;3.35;;
82186;SDS011;71776;52.042;8.160;2023-09-30T12:05:23;6.30;;;3.05;;
82186;SDS011;71776;52.042;8.160;2023-09-30T12:07:48;8.13;;;4.80;;
82186;SDS011;71776;52.042;8.160;2023-09-30T12:10:14;9.20;;;4.72;;
82186;SDS011;71776;52.042;8.160;2023-09-30T12:12:41;8.75;;;4.80;;
82186;SDS011;71776;52.042;8.160;2023-09-30T12:15:07;6.57;;;4.30;;
82186;SDS011;71776;52.042;8.160;2023-09-30T12:17:32;4.95;;;3.30;;
82186;SDS011;71776;52.042;8.160;2023-09-30T12:19:58;6.50;;;3.63;;
82186;SDS011;71776;52.042;8.160;2023-09-30T12:22:23;7.03;;;4.25;;
82186;SDS011;71776;52.042;8.160;2023-09-30T12:24:48;7.95;;;5.05;;
82186;SDS011;71776;52.042;8.160;2023-09-30T12:27:13;6.88;;;4.07;;
82186;SDS011;71776;52.042;8.160;2023-09-30T12:29:40;5.47;;;3.60;;
82186;SDS011;71776;52.042;8.160;2023-09-30T12:32:06;3.72;;;2.95;;
82186;SDS011;71776;52.042;8.160;2023-09-30T12:34:31;5.43;;;3.58;;
82186;SDS011;71776;52.042;8.160;2023-09-30T12:36:56;5.72;;;3.25;;
82186;SDS011;71776;52.042;8.160;2023-09-30T12:39:22;8.77;;;4.50;;
82186;SDS011;71776;52.042;8.160;2023-09-30T12:41:47;6.55;;;3.10;;
82186;SDS011;71776;52.042;8.160;2023-09-30T12:44:13;6.15;;;3.72;;
82186;SDS011;71776;52.042;8.160;2023-09-30T12:46:40;7.88;;;3.53;;
82186;SDS011;71776;52.042;8.160;2023-09-30T12:49:05;6.18;;;3.08;;
82186;SDS011;71776;52.042;8.160;2023-09-30T12:51:31;4.90;;;3.13;;
82186;SDS011;71776;52.042;8.160;2023-09-30T12:53:57;5.20;;;3.50;;
82186;SDS011;71776;52.042;8.160;2023-09-30T12:56:22;6.60;;;2.80;;
82186;SDS011;71776;52.042;8.160;2023-09-30T12:58:47;10.88;;;6.50;;
82186;SDS011;71776;52.042;8.160;2023-09-30T13:01:13;13.35;;;7.80;;
82186;SDS011;71776;52.042;8.160;2023-09-30T13:03:39;13.88;;;6.28;;
82186;SDS011;71776;52.042;8.160;2023-09-30T13:06:05;9.63;;;4.90;;
82186;SDS011;71776;52.042;8.160;2023-09-30T13:08:30;12.60;;;6.63;;
82186;SDS011;71776;52.042;8.160;2023-09-30T13:10:55;7.57;;;3.95;;
82186;SDS011;71776;52.042;8.160;2023-09-30T13:13:21;10.40;;;3.83;;
82186;SDS011;71776;52.042;8.160;2023-09-30T13:15:46;3.72;;;2.88;;
82186;SDS011;71776;52.042;8.160;2023-09-30T13:18:12;4.72;;;2.92;;
82186;SDS011;71776;52.042;8.160;2023-09-30T13:20:38;7.32;;;3.55;;
82186;SDS011;71776;52.042;8.160;2023-09-30T13:23:03;4.80;;;3.15;;
82186;SDS011;71776;52.042;8.160;2023-09-30T13:25:29;4.43;;;2.88;;
82186;SDS011;71776;52.042;8.160;2023-09-30T13:27:54;6.60;;;3.08;;
82186;SDS011;71776;52.042;8.160;2023-09-30T13:30:19;5.63;;;2.70;;
82186;SDS011;71776;52.042;8.160;2023-09-30T13:32:45;4.68;;;3.08;;
82186;SDS011;71776;52.042;8.160;2023-09-30T13:35:10;5.40;;;2.85;;
82186;SDS011;71776;52.042;8.160;2023-09-30T13:37:37;6.53;;;3.33;;
82186;SDS011;71776;52.042;8.160;2023-09-30T13:40:02;5.75;;;2.90;;
82186;SDS011;71776;52.042;8.160;2023-09-30T13:42:28;5.35;;;2.88;;
82186;SDS011;71776;52.042;8.160;2023-09-30T13:44:53;5.50;;;3.25;;
82186;SDS011;71776;52.042;8.160;2023-09-30T13:47:18;5.93;;;2.97;;
82186;SDS011;71776;52.042;8.160;2023-09-30T13:49:44;5.15;;;2.50;;
82186;SDS011;71776;52.042;8.160;2023-09-30T13:52:09;4.63;;;3.05;;
82186;SDS011;71776;52.042;8.160;2023-09-30T13:54:36;5.03;;;2.63;;
82186;SDS011;71776;52.042;8.160;2023-09-30T13:57:01;4.60;;;2.67;;
82186;SDS011;71776;52.042;8.160;2023-09-30T13:59:26;3.42;;;2.47;;
82186;SDS011;71776;52.042;8.160;2023-09-30T14:01:52;4.28;;;2.72;;
82186;SDS011;71776;52.042;8.160;2023-09-30T14:04:17;5.65;;;2.80;;
82186;SDS011;71776;52.042;8.160;2023-09-30T14:06:42;9.13;;;3.20;;
82186;SDS011;71776;52.042;8.160;2023-09-30T14:09:08;5.90;;;2.88;;
82186;SDS011;71776;52.042;8.160;2023-09-30T14:11:34;3.58;;;2.42;;
82186;SDS011;71776;52.042;8.160;2023-09-30T14:13:59;7.13;;;3.00;;
82186;SDS011;71776;52.042;8.160;2023-09-30T14:16:25;5.68;;;3.13;;
82186;SDS011;71776;52.042;8.160;2023-09-30T14:18:51;7.38;;;2.78;;
82186;SDS011;71776;52.042;8.160;2023-09-30T14:21:16;5.68;;;2.85;;
82186;SDS011;71776;52.042;8.160;2023-09-30T14:23:42;6.28;;;3.10;;
82186;SDS011;71776;52.042;8.160;2023-09-30T14:26:07;7.50;;;2.75;;
82186;SDS011;71776;52.042;8.160;2023-09-30T14:28:34;15.18;;;3.67;;
82186;SDS011;71776;52.042;8.160;2023-09-30T14:31:02;5.85;;;2.58;;
82186;SDS011;71776;52.042;8.160;2023-09-30T14:33:27;4.68;;;2.90;;
82186;SDS011;71776;52.042;8.160;2023-09-30T14:35:52;4.93;;;3.22;;
82186;SDS011;71776;52.042;8.160;2023-09-30T14:38:18;8.27;;;3.25;;
82186;SDS011;71776;52.042;8.160;2023-09-30T14:40:43;5.72;;;3.42;;
82186;SDS011;71776;52.042;8.160;2023-09-30T14:43:08;5.07;;;2.80;;
82186;SDS011;71776;52.042;8.160;2023-09-30T14:45:38;5.15;;;3.20;;
82186;SDS011;71776;52.042;8.160;2023-09-30T14:48:04;4.70;;;2.90;;